PWSweather.com
Personal Weather Stations
Station Observations

OlomoucCZ

Lat: 49.5936202181, Lon: 17.2276005149

Elevation: 752

Station Type: Davis Vantage Pro 2 Activ

http://infopocasi-olomouc.cz

Latest ConditionsUpdated 12:30:01 PM GMT+01:01 Saturday, Jul 21, 2018
Currently Today's Max Today's Min Today's Average
Temperature 83.0°F28.3°C 83.0°F28.3°C 58.6°F14.8°C 68.3°F20.2°C
Dew Point 57.5°F14.2°C 60.8°F16.0°C 55.4°F13.0°C 57.5°F14.2°C
Winds Calm Calm 9.2 mph -14.8 kmh - - 1.7 mph 2.7 kmh
Wind Gusts -- 10.4 mph16.7 kmh - -
Humidity 42% 89% 42% 71%
Pressure 29.82 in1009.8 mb 29.88 in1011.9 mb 29.82 in1009.8 mb -
Hour Temp Dew Point Humidity Winds Wind Gusts Pressure Precip Precip Rate Daily Precip Total
12:30 PM 83.0°F28.3°C 57.5°F14.2°C 42% Calm Calm -- 29.82 in1009.8 mb - 0.00 in0.0 mm 0.00 in0.0 mm
12:00 PM 82.8°F28.2°C 58.0°F14.4°C 43% Calm Calm -- 29.83 in1010.2 mb - 0.00 in0.0 mm 0.00 in0.0 mm
11:30 AM 82.2°F27.9°C 58.7°F14.8°C 45% 2.3 mph E3.7 kmh E 6.9 mph11.1 kmh 29.83 in1010.2 mb - 0.00 in0.0 mm 0.00 in0.0 mm
11:00 AM 81.7°F27.6°C 58.9°F14.9°C 46% Calm Calm -- 29.84 in1010.5 mb - 0.00 in0.0 mm 0.00 in0.0 mm
10:30 AM 80.7°F27.1°C 60.4°F15.8°C 50% 9.2 mph ESE14.8 kmh ESE 10.4 mph16.7 kmh 29.84 in1010.5 mb - 0.00 in0.0 mm 0.00 in0.0 mm
10:00 AM 79.4°F26.3°C 60.8°F16.0°C 53% 1.2 mph NE1.9 kmh NE 5.8 mph9.3 kmh 29.85 in1010.8 mb - 0.00 in0.0 mm 0.00 in0.0 mm
09:30 AM 78.2°F25.7°C 60.7°F15.9°C 55% Calm Calm -- 29.86 in1011.2 mb - 0.00 in0.0 mm 0.00 in0.0 mm
09:00 AM 74.8°F23.8°C 59.5°F15.3°C 59% 1.2 mph S1.9 kmh S 3.5 mph5.6 kmh 29.86 in1011.2 mb - 0.00 in0.0 mm 0.00 in0.0 mm
08:30 AM 72.1°F22.3°C 59.2°F15.1°C 64% Calm Calm -- 29.86 in1011.2 mb - 0.00 in0.0 mm 0.00 in0.0 mm
08:00 AM 70.3°F21.3°C 59.6°F15.3°C 69% Calm Calm 2.3 mph3.7 kmh 29.87 in1011.5 mb - 0.00 in0.0 mm 0.00 in0.0 mm
07:30 AM 67.6°F19.8°C 58.6°F14.8°C 73% Calm Calm -- 29.87 in1011.5 mb - 0.00 in0.0 mm 0.00 in0.0 mm
07:00 AM 64.8°F18.2°C 57.4°F14.1°C 77% Calm Calm -- 29.87 in1011.5 mb - 0.00 in0.0 mm 0.00 in0.0 mm
06:30 AM 62.5°F16.9°C 56.9°F13.8°C 82% 1.2 mph NW1.9 kmh NW 2.3 mph3.7 kmh 29.87 in1011.5 mb - 0.00 in0.0 mm 0.00 in0.0 mm
06:00 AM 61.2°F16.2°C 55.7°F13.2°C 82% 2.3 mph NW3.7 kmh NW 3.5 mph5.6 kmh 29.87 in1011.5 mb - 0.00 in0.0 mm 0.00 in0.0 mm
05:30 AM 59.8°F15.4°C 55.6°F13.1°C 86% 2.3 mph NW3.7 kmh NW 3.5 mph5.6 kmh 29.87 in1011.5 mb - 0.00 in0.0 mm 0.00 in0.0 mm
05:00 AM 58.6°F14.8°C 55.4°F13.0°C 89% 3.5 mph NW5.6 kmh NW 3.5 mph5.6 kmh 29.87 in1011.5 mb - 0.00 in0.0 mm 0.00 in0.0 mm
04:30 AM 59.1°F15.1°C 55.9°F13.3°C 89% 5.8 mph NW9.3 kmh NW 6.9 mph11.1 kmh 29.88 in1011.9 mb - 0.00 in0.0 mm 0.00 in0.0 mm
04:00 AM 59.0°F15.0°C 55.8°F13.2°C 89% 2.3 mph NW3.7 kmh NW 2.3 mph3.7 kmh 29.88 in1011.9 mb - 0.00 in0.0 mm 0.00 in0.0 mm
03:30 AM 59.0°F15.0°C 55.4°F13.0°C 88% 1.2 mph NW1.9 kmh NW 2.3 mph3.7 kmh 29.87 in1011.5 mb - 0.00 in0.0 mm 0.00 in0.0 mm
03:00 AM 59.6°F15.3°C 55.4°F13.0°C 86% 2.3 mph NW3.7 kmh NW 3.5 mph5.6 kmh 29.87 in1011.5 mb - 0.00 in0.0 mm 0.00 in0.0 mm
02:30 AM 60.3°F15.7°C 55.8°F13.2°C 85% Calm Calm -- 29.87 in1011.5 mb - 0.00 in0.0 mm 0.00 in0.0 mm
02:00 AM 61.1°F16.2°C 56.6°F13.7°C 85% 1.2 mph NW1.9 kmh NW 2.3 mph3.7 kmh 29.88 in1011.9 mb - 0.00 in0.0 mm 0.00 in0.0 mm
01:30 AM 62.1°F16.7°C 56.5°F13.6°C 82% 2.3 mph NW3.7 kmh NW 2.3 mph3.7 kmh 29.88 in1011.9 mb - 0.00 in0.0 mm 0.00 in0.0 mm
01:00 AM 63.6°F17.6°C 56.6°F13.7°C 78% 1.2 mph NW1.9 kmh NW 1.2 mph1.9 kmh 29.88 in1011.9 mb - 0.00 in0.0 mm 0.00 in0.0 mm
12:30 AM 65.0°F18.3°C 57.2°F14.0°C 76% 2.3 mph NW3.7 kmh NW 2.3 mph3.7 kmh 29.88 in1011.9 mb - 0.00 in0.0 mm 0.00 in0.0 mm
12:00 AM 66.0°F18.9°C 57.5°F14.2°C 74% 3.5 mph NW5.6 kmh NW 4.6 mph7.4 kmh 29.88 in1011.9 mb - 0.00 in0.0 mm 0.00 in0.0 mm